Terminal Aerodrome Forecast
Issued by NWS Nashville, TN

Home | Current Version | Previous Version | Text Only | Print | Product List | Glossary On
Versions: 1 2 3 4 5 6 7 8 9 10 11 12 13 14 15 16 17 18 19 20 21 22 23 24
000
FTUS44 KOHX 310000 AAA
TAFBNA
TAF AMD
KBNA 310010Z 3100/3124 VRB04KT 3SM -TSRA SCT011 OVC030CB
      TEMPO 3100/3102 3/4SM TSRA BR BKN004 OVC011CB
     FM310300 18005KT 4SM -SHRA BR SCT009 OVC020
      TEMPO 3109/3112 2SM -SHRA BR BKN009 OVC020
     FM311200 18008KT 4SM -SHRA BR SCT011 OVC020
      TEMPO 3112/3116 2SM -SHRA BR BKN011 OVC020
     FM311700 22008G18KT P6SM VCTS BKN025CB OVC050=

USA.gov is the U.S. government's official web portal to all federal, state and local government web resources and services.